createdAt,value
2022-08-26T00:00:06.193Z,992
2022-08-26T00:15:05.403Z,1044
2022-08-26T00:30:03.017Z,1082
2022-08-26T00:45:06.049Z,1125
2022-08-26T01:00:03.398Z,1174
2022-08-26T01:15:03.472Z,1211
2022-08-26T01:30:04.550Z,1254
2022-08-26T01:45:06.309Z,1307
2022-08-26T02:00:06.244Z,1345
2022-08-26T02:15:04.300Z,1387
2022-08-26T02:30:03.261Z,1435
2022-08-26T02:45:06.342Z,1470
2022-08-26T03:00:03.297Z,1514
2022-08-26T03:15:06.295Z,1561
2022-08-26T03:30:02.206Z,1596
2022-08-26T03:45:03.203Z,1599
2022-08-26T04:00:03.130Z,1557
2022-08-26T04:15:04.123Z,1464
2022-08-26T04:30:02.498Z,1341
2022-08-26T04:45:05.567Z,1130
2022-08-26T05:00:02.543Z,924
2022-08-26T05:15:02.071Z,764
2022-08-26T05:30:03.142Z,641
2022-08-26T05:45:04.188Z,534
2022-08-26T06:00:03.462Z,509
2022-08-26T06:15:06.551Z,504
2022-08-26T06:30:04.487Z,517
2022-08-26T06:45:03.314Z,511
2022-08-26T07:00:03.994Z,510
2022-08-26T07:15:04.232Z,512
2022-08-26T07:30:03.407Z,509
2022-08-26T07:45:05.285Z,486
2022-08-26T08:00:02.443Z,480
2022-08-26T08:15:05.114Z,479
2022-08-26T08:30:05.560Z,477
2022-08-26T08:45:04.163Z,473
2022-08-26T09:00:05.505Z,471
2022-08-26T09:15:03.568Z,466
2022-08-26T09:30:03.533Z,466
2022-08-26T09:45:05.427Z,469
2022-08-26T10:00:06.445Z,474
2022-08-26T10:15:06.420Z,477
2022-08-26T10:30:03.339Z,478
2022-08-26T10:45:05.381Z,476
2022-08-26T11:00:04.195Z,474
2022-08-26T11:15:04.524Z,471
2022-08-26T11:30:03.331Z,468
2022-08-26T11:45:02.114Z,463
2022-08-26T12:00:02.311Z,465
2022-08-26T12:30:06.338Z,465
2022-08-26T12:45:04.166Z,462
2022-08-26T13:00:03.650Z,466
2022-08-26T13:15:03.344Z,470
2022-08-26T13:30:05.167Z,462
2022-08-26T13:45:05.128Z,453
2022-08-26T14:00:06.211Z,449
2022-08-26T14:15:06.538Z,437
2022-08-26T14:30:06.538Z,433
2022-08-26T14:45:02.422Z,437
2022-08-26T15:00:03.320Z,465
2022-08-26T15:15:04.094Z,492
2022-08-26T15:30:02.339Z,533
2022-08-26T15:45:02.408Z,575
2022-08-26T16:00:04.387Z,619
2022-08-26T16:15:05.048Z,632
2022-08-26T16:30:02.093Z,651
2022-08-26T16:45:06.559Z,665
2022-08-26T17:00:05.340Z,685
2022-08-26T17:15:04.527Z,704
2022-08-26T17:30:04.179Z,732
2022-08-26T17:45:03.567Z,757
2022-08-26T18:00:03.557Z,776
2022-08-26T18:15:05.379Z,786
2022-08-26T18:30:02.464Z,784
2022-08-26T18:45:06.407Z,777
2022-08-26T19:00:03.408Z,768
2022-08-26T19:15:06.362Z,762
2022-08-26T19:30:05.164Z,757
2022-08-26T19:45:06.568Z,758
2022-08-26T20:00:02.348Z,762
2022-08-26T20:15:03.152Z,763
2022-08-26T20:30:05.041Z,757
2022-08-26T20:45:04.461Z,756
2022-08-26T21:00:03.173Z,755
2022-08-26T21:15:03.476Z,770
2022-08-26T21:30:05.149Z,791
2022-08-26T21:45:02.189Z,831
2022-08-26T22:00:05.090Z,886
2022-08-26T22:15:02.314Z,945
2022-08-26T22:30:04.234Z,1006
2022-08-26T22:45:05.200Z,1074
2022-08-26T23:00:02.199Z,1129
2022-08-26T23:15:03.330Z,1179
2022-08-26T23:30:04.141Z,1239
2022-08-26T23:45:05.430Z,1290
